Time;durP1;ratioP1;P1;durP2;ratioP2;P2;SDS_P1;SDS_P2;PMS_P1;PMS_P2;Temp;Humidity;BMP_temperature;BMP_pressure;BME280_temperature;BME280_humidity;BME280_pressure;Samples;Min_cycle;Max_cycle;Signal;HPM_P1;HPM_P2
2022/01/20 00:02:18;;;;;;;19.03;8.13;;;;;;;;;;6206556;23;20171;-88
2022/01/20 00:06:05;;;;;;;17.13;7.70;;;;;;;;;;6206409;23;20199;-92
2022/01/20 01:21:06;;;;;;;18.83;8.07;;;;;;;;;;6120520;23;20174;-89
2022/01/20 01:24:09;;;;;;;16.10;7.40;;;;;;;;;;6112557;23;20183;-90
2022/01/20 01:27:15;;;;;;;14.90;6.70;;;;;;;;;;6115617;23;20173;-90
2022/01/20 01:30:36;;;;;;;15.33;7.13;;;;;;;;;;6114297;23;20205;-90
2022/01/20 01:33:53;;;;;;;15.33;6.47;;;;;;;;;;6115435;23;20171;-91
2022/01/20 01:41:14;;;;;;;15.37;6.60;;;;;;;;;;6114458;23;20215;-89
2022/01/20 01:44:22;;;;;;;15.67;6.80;;;;;;;;;;6113707;23;20621;-89
2022/01/20 01:47:30;;;;;;;14.27;6.50;;;;;;;;;;6115008;23;20237;-90
2022/01/20 01:50:37;;;;;;;12.63;5.97;;;;;;;;;;6114711;23;20218;-89
2022/01/20 01:53:42;;;;;;;12.23;6.03;;;;;;;;;;6117743;23;20490;-90
2022/01/20 01:56:50;;;;;;;15.90;6.50;;;;;;;;;;6113651;23;20177;-90
2022/01/20 02:00:06;;;;;;;14.57;6.03;;;;;;;;;;6114214;23;20234;-90
2022/01/20 02:03:20;;;;;;;16.43;6.53;;;;;;;;;;6114491;23;20173;-90
2022/01/20 02:07:10;;;;;;;15.00;5.50;;;;;;;;;;6114031;23;20210;-91
2022/01/20 02:20:29;;;;;;;13.53;6.40;;;;;;;;;;6111880;23;20167;-92
2022/01/20 02:23:47;;;;;;;13.30;5.87;;;;;;;;;;6110336;23;20178;-90
2022/01/20 02:26:53;;;;;;;14.67;6.23;;;;;;;;;;6114184;23;20170;-90
2022/01/20 02:30:13;;;;;;;11.77;5.87;;;;;;;;;;6113455;23;20170;-90
2022/01/20 02:33:18;;;;;;;12.77;5.80;;;;;;;;;;6112275;23;20242;-90
2022/01/20 02:36:26;;;;;;;17.07;6.33;;;;;;;;;;6112401;23;20206;-89
2022/01/20 02:46:27;;;;;;;15.93;6.50;;;;;;;;;;6111817;23;20174;-90
2022/01/20 02:49:33;;;;;;;12.33;5.30;;;;;;;;;;6113232;23;20194;-89
2022/01/20 02:52:40;;;;;;;17.83;6.93;;;;;;;;;;6112378;23;20173;-90
2022/01/20 02:55:45;;;;;;;15.07;6.67;;;;;;;;;;6113029;23;20615;-89
2022/01/20 02:58:50;;;;;;;16.37;5.87;;;;;;;;;;6110564;23;20184;-89
2022/01/20 03:01:55;;;;;;;16.30;7.37;;;;;;;;;;6112848;23;20206;-90
2022/01/20 03:05:00;;;;;;;18.97;7.13;;;;;;;;;;6112747;23;20214;-89
2022/01/20 03:08:12;;;;;;;17.40;6.80;;;;;;;;;;6112330;23;20186;-90
2022/01/20 03:11:17;;;;;;;12.93;6.17;;;;;;;;;;6112138;23;20192;-89
2022/01/20 03:14:22;;;;;;;15.00;6.43;;;;;;;;;;6111086;23;20176;-90
2022/01/20 03:17:28;;;;;;;14.70;6.40;;;;;;;;;;6111511;23;20263;-90
2022/01/20 03:20:34;;;;;;;16.57;6.70;;;;;;;;;;6112484;23;20199;-89
2022/01/20 03:23:41;;;;;;;13.60;6.70;;;;;;;;;;6111702;23;20170;-90
2022/01/20 03:26:46;;;;;;;11.60;5.63;;;;;;;;;;6109963;23;20506;-89
2022/01/20 03:29:52;;;;;;;13.10;5.70;;;;;;;;;;6111595;23;20222;-90
2022/01/20 03:32:57;;;;;;;13.50;6.20;;;;;;;;;;6111523;23;20178;-90
2022/01/20 03:36:03;;;;;;;14.70;6.13;;;;;;;;;;6110477;23;20202;-89
2022/01/20 03:39:31;;;;;;;13.30;5.77;;;;;;;;;;6112171;23;20174;-90
2022/01/20 03:42:37;;;;;;;14.37;5.60;;;;;;;;;;6109240;23;20170;-91
2022/01/20 03:45:46;;;;;;;12.10;5.90;;;;;;;;;;6109978;23;20236;-90
2022/01/20 03:48:55;;;;;;;9.70;4.90;;;;;;;;;;6107852;23;20170;-88
2022/01/20 03:52:00;;;;;;;9.87;5.00;;;;;;;;;;6108925;23;20197;-89
2022/01/20 03:55:12;;;;;;;8.37;4.30;;;;;;;;;;6109713;23;20515;-91
2022/01/20 03:58:39;;;;;;;9.43;4.70;;;;;;;;;;6110617;23;20174;-91
2022/01/20 04:01:47;;;;;;;7.90;3.97;;;;;;;;;;6109653;23;20230;-89
2022/01/20 04:05:05;;;;;;;9.00;4.00;;;;;;;;;;6108214;23;20233;-91
2022/01/20 04:08:14;;;;;;;10.13;4.83;;;;;;;;;;6109886;23;20154;-90
2022/01/20 04:11:22;;;;;;;10.70;4.40;;;;;;;;;;6110356;23;20222;-90
2022/01/20 04:14:33;;;;;;;11.87;4.97;;;;;;;;;;6110837;23;20541;-89
2022/01/20 04:17:42;;;;;;;13.63;4.63;;;;;;;;;;6111202;23;20262;-90
2022/01/20 04:20:47;;;;;;;10.03;3.90;;;;;;;;;;6109800;23;20257;-91
2022/01/20 04:23:52;;;;;;;9.33;4.40;;;;;;;;;;6111575;23;20194;-90
2022/01/20 04:27:00;;;;;;;9.63;4.00;;;;;;;;;;6110553;23;20189;-89
2022/01/20 04:30:08;;;;;;;8.90;3.90;;;;;;;;;;6111224;23;20166;-89
2022/01/20 04:33:13;;;;;;;8.47;4.27;;;;;;;;;;6112106;23;20178;-90
2022/01/20 04:36:18;;;;;;;7.27;3.70;;;;;;;;;;6111602;23;20169;-91
2022/01/20 04:39:27;;;;;;;8.87;4.53;;;;;;;;;;6112025;23;20206;-90
2022/01/20 04:42:37;;;;;;;8.93;3.90;;;;;;;;;;6112895;23;20182;-90
2022/01/20 04:45:47;;;;;;;7.47;3.93;;;;;;;;;;6113908;23;20239;-89
2022/01/20 04:49:12;;;;;;;10.63;4.03;;;;;;;;;;6113727;23;20157;-89
2022/01/20 04:59:09;;;;;;;10.70;4.37;;;;;;;;;;6112262;23;20170;-89
2022/01/20 05:02:40;;;;;;;7.97;4.13;;;;;;;;;;6114636;23;20172;-90
2022/01/20 05:05:52;;;;;;;8.63;3.90;;;;;;;;;;6114691;23;20175;-89
2022/01/20 05:08:59;;;;;;;7.07;3.67;;;;;;;;;;6114076;23;20182;-91
2022/01/20 05:12:09;;;;;;;10.93;4.67;;;;;;;;;;6112340;23;20216;-91
2022/01/20 05:15:18;;;;;;;8.87;4.53;;;;;;;;;;6114746;23;20173;-90
2022/01/20 05:18:23;;;;;;;8.77;4.13;;;;;;;;;;6116967;23;20237;-90
2022/01/20 05:21:31;;;;;;;6.93;3.23;;;;;;;;;;6116705;23;20169;-90
2022/01/20 05:24:39;;;;;;;6.93;3.67;;;;;;;;;;6115828;23;20166;-90
2022/01/20 05:27:45;;;;;;;8.03;3.93;;;;;;;;;;6114228;23;20174;-89
2022/01/20 05:30:52;;;;;;;8.07;3.73;;;;;;;;;;6113435;23;20218;-90
2022/01/20 05:34:06;;;;;;;10.33;4.47;;;;;;;;;;6115853;23;20175;-89
2022/01/20 05:37:11;;;;;;;10.47;4.17;;;;;;;;;;6114226;23;20509;-91
2022/01/20 05:40:16;;;;;;;9.67;4.60;;;;;;;;;;6114535;23;20178;-91
2022/01/20 05:43:22;;;;;;;13.70;4.50;;;;;;;;;;6115056;23;20173;-89
2022/01/20 05:46:36;;;;;;;8.73;3.80;;;;;;;;;;6115182;23;20219;-90
2022/01/20 05:49:45;;;;;;;9.33;4.03;;;;;;;;;;6116121;23;20215;-90
2022/01/20 05:52:52;;;;;;;10.60;4.57;;;;;;;;;;6115010;23;20209;-90
2022/01/20 05:55:58;;;;;;;10.63;4.43;;;;;;;;;;6114672;23;20791;-90
2022/01/20 05:59:03;;;;;;;7.57;3.87;;;;;;;;;;6116788;23;20173;-90
2022/01/20 06:02:14;;;;;;;10.23;4.40;;;;;;;;;;6117173;23;20179;-90
2022/01/20 06:05:20;;;;;;;7.27;3.87;;;;;;;;;;6117832;23;20157;-89
2022/01/20 06:08:28;;;;;;;8.20;4.07;;;;;;;;;;6117438;23;20177;-90
2022/01/20 06:11:34;;;;;;;7.03;3.70;;;;;;;;;;6116694;23;20196;-90
2022/01/20 06:14:41;;;;;;;7.10;3.67;;;;;;;;;;6115899;23;20183;-90
2022/01/20 06:21:27;;;;;;;9.83;4.37;;;;;;;;;;6115803;23;20254;-90
2022/01/20 06:24:32;;;;;;;7.50;3.23;;;;;;;;;;6116028;23;20162;-89
2022/01/20 06:27:38;;;;;;;8.20;4.27;;;;;;;;;;6117167;23;20229;-90
2022/01/20 06:30:43;;;;;;;11.00;4.40;;;;;;;;;;6116156;23;20563;-91
2022/01/20 06:33:49;;;;;;;8.67;4.43;;;;;;;;;;6116325;23;20177;-91
2022/01/20 06:37:16;;;;;;;9.83;3.73;;;;;;;;;;6118126;23;20154;-89
2022/01/20 06:40:24;;;;;;;8.70;4.10;;;;;;;;;;6116346;23;20182;-90
2022/01/20 06:43:29;;;;;;;14.20;4.43;;;;;;;;;;6114881;23;20291;-89
2022/01/20 06:46:34;;;;;;;17.23;4.50;;;;;;;;;;6116675;23;20307;-93
2022/01/20 06:50:02;;;;;;;14.37;4.57;;;;;;;;;;6119635;23;20169;-90
2022/01/20 06:53:09;;;;;;;7.83;4.30;;;;;;;;;;6119226;23;20206;-89
2022/01/20 06:56:29;;;;;;;9.90;4.40;;;;;;;;;;6119751;23;20221;-88
2022/01/20 06:59:36;;;;;;;11.43;3.97;;;;;;;;;;6117587;23;20178;-89
2022/01/20 07:02:43;;;;;;;7.80;4.17;;;;;;;;;;6116095;23;20486;-89
2022/01/20 07:05:49;;;;;;;7.57;3.97;;;;;;;;;;6114921;23;20165;-89
2022/01/20 07:08:54;;;;;;;8.83;3.83;;;;;;;;;;6114048;23;20169;-90
2022/01/20 07:12:01;;;;;;;5.57;3.03;;;;;;;;;;6114791;23;20222;-88
2022/01/20 07:15:07;;;;;;;22.00;5.53;;;;;;;;;;6114008;23;20230;-90
2022/01/20 07:18:12;;;;;;;6.50;3.40;;;;;;;;;;6113556;23;20230;-90
2022/01/20 07:21:18;;;;;;;8.80;4.07;;;;;;;;;;6114887;23;20222;-89
2022/01/20 07:24:34;;;;;;;7.43;3.67;;;;;;;;;;6113959;23;20650;-88
2022/01/20 07:27:51;;;;;;;8.83;3.47;;;;;;;;;;6115163;23;20174;-89
2022/01/20 07:30:56;;;;;;;7.47;2.87;;;;;;;;;;6114252;23;20291;-90
2022/01/20 07:34:01;;;;;;;9.90;4.53;;;;;;;;;;6112997;23;20158;-90
2022/01/20 07:37:07;;;;;;;6.43;3.03;;;;;;;;;;6112288;23;20205;-89
2022/01/20 07:40:14;;;;;;;5.80;3.60;;;;;;;;;;6111764;23;20212;-88
2022/01/20 07:43:26;;;;;;;6.83;3.83;;;;;;;;;;6114186;23;20149;-89
2022/01/20 07:46:32;;;;;;;5.43;3.67;;;;;;;;;;6112265;23;20225;-91
2022/01/20 07:49:43;;;;;;;7.77;3.70;;;;;;;;;;6112943;23;20633;-91
2022/01/20 07:52:49;;;;;;;7.93;3.83;;;;;;;;;;6113410;23;20280;-90
2022/01/20 07:55:54;;;;;;;8.77;4.00;;;;;;;;;;6110828;23;20307;-90
2022/01/20 07:59:03;;;;;;;8.43;4.10;;;;;;;;;;6111424;23;20198;-91
2022/01/20 08:02:09;;;;;;;8.53;3.90;;;;;;;;;;6114049;23;20165;-90
2022/01/20 08:05:14;;;;;;;7.03;3.40;;;;;;;;;;6113468;23;20222;-88
2022/01/20 08:08:24;;;;;;;10.60;3.50;;;;;;;;;;6112869;23;20187;-90
2022/01/20 08:11:50;;;;;;;5.50;3.30;;;;;;;;;;6115517;23;20201;-89
2022/01/20 08:15:15;;;;;;;9.97;3.77;;;;;;;;;;6114789;23;20180;-90
2022/01/20 08:18:42;;;;;;;9.30;3.40;;;;;;;;;;6114257;23;20162;-89
2022/01/20 08:21:55;;;;;;;9.43;3.60;;;;;;;;;;6115247;23;20214;-89
2022/01/20 08:25:02;;;;;;;6.90;3.63;;;;;;;;;;6115626;23;20218;-90
2022/01/20 08:28:08;;;;;;;6.10;3.03;;;;;;;;;;6115057;23;20173;-90
2022/01/20 08:31:20;;;;;;;6.33;3.40;;;;;;;;;;6116392;23;20170;-91
2022/01/20 08:34:25;;;;;;;7.23;3.90;;;;;;;;;;6118893;23;20218;-89
2022/01/20 08:37:51;;;;;;;6.63;3.60;;;;;;;;;;6104485;23;20177;-90
2022/01/20 08:40:56;;;;;;;9.93;3.60;;;;;;;;;;6118127;23;20158;-90
2022/01/20 08:44:02;;;;;;;5.40;3.17;;;;;;;;;;6117492;23;20253;-89
2022/01/20 08:47:16;;;;;;;4.70;3.10;;;;;;;;;;6117760;23;20182;-89
2022/01/20 08:50:23;;;;;;;5.67;2.90;;;;;;;;;;6119233;23;20190;-92
2022/01/20 11:02:29;;;;;;;5.90;2.40;;;;;;;;;;6175210;23;20208;-90
2022/01/20 11:05:35;;;;;;;7.97;2.83;;;;;;;;;;6186803;23;20225;-89
2022/01/20 11:08:44;;;;;;;7.27;2.50;;;;;;;;;;6188641;23;20176;-91
2022/01/20 11:11:53;;;;;;;4.33;2.30;;;;;;;;;;6185925;23;20176;-89
2022/01/20 11:15:25;;;;;;;3.47;1.87;;;;;;;;;;6182313;23;20156;-89
2022/01/20 11:18:34;;;;;;;6.27;2.17;;;;;;;;;;6186453;23;20171;-90
2022/01/20 11:21:42;;;;;;;7.20;2.17;;;;;;;;;;6185216;23;20251;-89
2022/01/20 11:24:58;;;;;;;5.40;2.30;;;;;;;;;;6186074;23;20272;-90
2022/01/20 11:28:19;;;;;;;6.50;2.27;;;;;;;;;;6185462;23;20296;-90
2022/01/20 11:31:47;;;;;;;9.03;1.57;;;;;;;;;;6204178;23;20322;-89
2022/01/20 11:35:18;;;;;;;5.57;2.20;;;;;;;;;;6204999;23;20256;-90
2022/01/20 11:41:57;;;;;;;5.30;1.67;;;;;;;;;;6186649;23;20291;-89
2022/01/20 11:45:02;;;;;;;10.03;2.03;;;;;;;;;;6186602;23;20171;-89
2022/01/20 11:48:15;;;;;;;6.87;2.20;;;;;;;;;;6183286;23;20171;-88
2022/01/20 11:54:46;;;;;;;3.60;1.90;;;;;;;;;;6202008;23;20510;-90
2022/01/20 11:57:51;;;;;;;4.37;2.00;;;;;;;;;;6185394;23;20163;-90
2022/01/20 12:01:02;;;;;;;7.57;2.07;;;;;;;;;;6186874;23;20175;-91
2022/01/20 12:04:09;;;;;;;4.33;2.33;;;;;;;;;;6187006;23;20159;-89
2022/01/20 12:07:27;;;;;;;7.80;1.40;;;;;;;;;;6186849;23;20171;-92
2022/01/20 12:10:34;;;;;;;4.97;2.20;;;;;;;;;;6186658;23;20174;-88
2022/01/20 12:13:46;;;;;;;9.17;1.70;;;;;;;;;;6185584;23;20187;-91
2022/01/20 12:17:00;;;;;;;2.83;1.37;;;;;;;;;;6185776;23;20199;-89
2022/01/20 12:43:45;;;;;;;4.27;1.57;;;;;;;;;;6171845;23;20192;-88
2022/01/20 12:46:51;;;;;;;5.70;1.57;;;;;;;;;;6157137;23;20168;-91
2022/01/20 12:49:56;;;;;;;5.80;1.70;;;;;;;;;;6156043;23;20168;-90
2022/01/20 12:53:01;;;;;;;8.33;1.80;;;;;;;;;;6155642;23;20196;-91
2022/01/20 12:56:07;;;;;;;6.43;1.33;;;;;;;;;;6154675;23;20207;-89
2022/01/20 12:59:20;;;;;;;4.57;1.30;;;;;;;;;;6154713;23;20217;-87
2022/01/20 13:02:29;;;;;;;3.40;1.40;;;;;;;;;;6157006;23;20156;-89
2022/01/20 13:05:41;;;;;;;5.30;1.70;;;;;;;;;;6157122;23;20189;-88
2022/01/20 13:08:55;;;;;;;5.20;1.73;;;;;;;;;;6157122;23;20160;-89
2022/01/20 13:12:02;;;;;;;6.23;1.83;;;;;;;;;;6158411;23;20208;-89
2022/01/20 13:15:22;;;;;;;4.17;1.63;;;;;;;;;;6157632;23;20185;-90
2022/01/20 13:25:16;;;;;;;10.47;1.40;;;;;;;;;;6181189;23;20157;-90
2022/01/20 13:28:29;;;;;;;5.80;1.40;;;;;;;;;;6163005;23;20320;-90
2022/01/20 13:35:11;;;;;;;4.57;1.03;;;;;;;;;;6159114;23;20255;-90
2022/01/20 13:38:19;;;;;;;8.30;1.90;;;;;;;;;;6159110;23;20161;-89
2022/01/20 13:41:34;;;;;;;2.57;1.00;;;;;;;;;;6159591;23;20148;-89
2022/01/20 13:48:09;;;;;;;1.90;0.67;;;;;;;;;;6160796;23;20164;-89
2022/01/20 13:51:17;;;;;;;5.97;1.43;;;;;;;;;;6158168;23;20252;-89
2022/01/20 13:54:24;;;;;;;4.10;1.63;;;;;;;;;;6159244;23;20270;-90
2022/01/20 13:57:38;;;;;;;3.17;1.30;;;;;;;;;;6159125;23;20204;-90
2022/01/20 14:00:47;;;;;;;3.40;1.30;;;;;;;;;;6158430;23;20157;-90
2022/01/20 14:07:22;;;;;;;6.00;2.00;;;;;;;;;;6158780;23;20239;-89
2022/01/20 14:10:29;;;;;;;18.80;6.80;;;;;;;;;;6158563;23;20224;-90
2022/01/20 23:02:53;;;;;;;10.53;2.50;;;;;;;;;;6148749;23;20211;-90
2022/01/20 23:05:58;;;;;;;6.93;2.13;;;;;;;;;;6184763;23;20219;-91
2022/01/20 23:09:04;;;;;;;7.43;2.23;;;;;;;;;;6186205;23;20834;-89
2022/01/20 23:12:09;;;;;;;4.47;1.80;;;;;;;;;;6187376;23;20300;-90
2022/01/20 23:15:26;;;;;;;8.17;2.17;;;;;;;;;;6188413;23;20171;-88
2022/01/20 23:18:56;;;;;;;7.77;2.17;;;;;;;;;;6188544;23;20191;-90
2022/01/20 23:22:01;;;;;;;12.70;2.50;;;;;;;;;;6185246;23;20279;-90
2022/01/20 23:25:07;;;;;;;5.83;1.50;;;;;;;;;;6186443;23;20199;-90
2022/01/20 23:28:12;;;;;;;7.90;2.20;;;;;;;;;;6188459;23;20167;-89
2022/01/20 23:31:21;;;;;;;17.90;2.67;;;;;;;;;;6172439;23;20265;-88
2022/01/20 23:34:28;;;;;;;7.90;2.17;;;;;;;;;;6187877;23;20212;-90
2022/01/20 23:37:36;;;;;;;4.17;1.33;;;;;;;;;;6186680;23;20239;-88
2022/01/20 23:40:51;;;;;;;5.00;1.40;;;;;;;;;;6187211;23;20152;-90
2022/01/20 23:44:23;;;;;;;4.33;1.60;;;;;;;;;;6188672;23;20535;-90
2022/01/20 23:50:53;;;;;;;5.10;2.27;;;;;;;;;;6188900;23;20176;-90
2022/01/20 23:53:58;;;;;;;12.23;2.03;;;;;;;;;;6187252;23;20202;-89
2022/01/20 23:57:03;;;;;;;7.47;1.80;;;;;;;;;;6186834;23;20167;-88
